Aviation Digital Data Service (ADDS)

Output produced by METARs form (1049 UTC 13 February 2016)
found at http://www.aviationweather.gov/adds/metars/
 
KSBY 130954Z AUTO 29007KT 10SM CLR M04/M10 A3001 RMK AO2 SLP165 T10441100
KSBY 130552Z 1306/1406 28005KT P6SM VCSH OVC080 
     FM131000 30015G25KT P6SM BKN060 OVC080 
     FM131400 31023G34KT P6SM OVC060 
     FM132200 32018G27KT P6SM BKN060 
     FM140000 33015G25KT P6SM BKN060